createdAt,value
2023-02-02T00:01:11.660Z,88.53
2023-02-02T00:11:15.907Z,89.11
2023-02-02T00:21:20.240Z,89.29
2023-02-02T00:31:23.444Z,89.24
2023-02-02T00:41:27.762Z,88.63
2023-02-02T00:51:30.561Z,88.66
2023-02-02T01:01:35.488Z,89.09
2023-02-02T01:11:38.549Z,89.34
2023-02-02T01:21:42.976Z,89.35
2023-02-02T01:31:46.563Z,88.70
2023-02-02T01:41:51.262Z,89.69
2023-02-02T01:51:57.874Z,90.53
2023-02-02T02:02:03.768Z,90.51
2023-02-02T02:12:13.558Z,92.43
2023-02-02T02:22:39.136Z,92.10
2023-02-02T02:32:48.537Z,92.70
2023-02-02T02:42:58.730Z,92.94
2023-02-02T02:53:07.011Z,90.78
2023-02-02T03:03:18.155Z,91.17
2023-02-02T03:13:22.590Z,90.41
2023-02-02T03:23:25.803Z,90.62
2023-02-02T03:33:32.032Z,90.77
2023-02-02T03:43:35.144Z,90.93
2023-02-02T03:53:39.504Z,92.15
2023-02-02T04:03:42.585Z,94.34
2023-02-02T04:13:46.945Z,95.25
2023-02-02T04:23:49.926Z,94.52
2023-02-02T04:33:54.851Z,94.24
2023-02-02T04:43:57.828Z,94.07
2023-02-02T04:54:02.285Z,94.57
2023-02-02T05:04:05.585Z,95.36
2023-02-02T05:14:10.036Z,95.75
2023-02-02T05:24:13.509Z,96.76
2023-02-02T05:34:17.845Z,96.44
2023-02-02T05:44:21.004Z,95.19
2023-02-02T05:54:26.350Z,94.37
2023-02-02T06:04:29.736Z,96.39
2023-02-02T06:14:34.059Z,96.01
2023-02-02T06:24:36.843Z,94.76
2023-02-02T06:34:41.040Z,93.77
2023-02-02T06:44:43.817Z,93.06
2023-02-02T06:54:47.944Z,93.33
2023-02-02T07:04:50.895Z,92.75
2023-02-02T07:14:56.407Z,92.29
2023-02-02T07:25:02.949Z,91.34
2023-02-02T07:35:08.954Z,91.54
2023-02-02T07:45:36.223Z,91.75
2023-02-02T07:55:37.688Z,91.53
2023-02-02T08:05:40.709Z,91.92
2023-02-02T08:15:45.685Z,93.99
2023-02-02T08:25:48.778Z,95.74
2023-02-02T08:35:53.108Z,95.51
2023-02-02T08:46:01.634Z,95.18
2023-02-02T08:56:12.191Z,95.63
2023-02-02T09:06:17.845Z,96.69
2023-02-02T09:16:23.303Z,97.61
2023-02-02T09:26:28.192Z,98.02
2023-02-02T09:36:33.611Z,97.20
2023-02-02T09:46:48.730Z,96.52
2023-02-02T09:56:58.051Z,94.93
2023-02-02T10:07:08.783Z,94.25
2023-02-02T10:17:33.044Z,94.09
2023-02-02T10:27:39.406Z,96.17
2023-02-02T10:37:51.466Z,97.63
2023-02-02T10:47:54.358Z,97.19
2023-02-02T10:58:09.716Z,95.80
2023-02-02T11:08:15.398Z,95.19
2023-02-02T11:18:30.224Z,94.78
2023-02-02T11:28:37.294Z,93.31
2023-02-02T11:38:41.984Z,92.95
2023-02-02T11:48:52.026Z,91.01
2023-02-02T11:58:59.253Z,90.11
2023-02-02T12:09:08.362Z,89.34
2023-02-02T12:19:31.053Z,87.93
2023-02-02T12:29:52.978Z,86.58
2023-02-02T12:40:15.640Z,85.53
2023-02-02T12:50:29.917Z,85.38
2023-02-02T13:00:53.662Z,86.80
2023-02-02T13:11:04.917Z,84.97
2023-02-02T13:21:15.288Z,85.41
2023-02-02T13:31:24.528Z,85.03
2023-02-02T13:41:30.757Z,84.54
2023-02-02T13:51:54.892Z,85.02
2023-02-02T14:02:00.703Z,83.91
2023-02-02T14:12:07.990Z,83.91
2023-02-02T14:22:40.665Z,83.85
2023-02-02T14:32:44.083Z,83.93
2023-02-02T14:43:17.569Z,83.10
2023-02-02T14:53:26.177Z,83.14
2023-02-02T15:03:53.960Z,82.40
2023-02-02T15:14:07.455Z,82.15
2023-02-02T15:24:26.124Z,81.75
2023-02-02T15:34:38.950Z,81.31
2023-02-02T15:44:44.136Z,80.17
2023-02-02T15:54:53.339Z,79.73
2023-02-02T16:04:57.921Z,79.29
2023-02-02T16:15:01.504Z,79.93
2023-02-02T16:25:14.268Z,79.99
2023-02-02T16:35:34.719Z,79.28
2023-02-02T16:45:48.057Z,79.01
2023-02-02T16:55:51.974Z,79.14
2023-02-02T17:05:58.746Z,79.71
2023-02-02T17:16:02.853Z,79.69
2023-02-02T17:26:36.215Z,79.53
2023-02-02T17:36:40.783Z,79.95
2023-02-02T17:46:45.435Z,80.24
2023-02-02T17:56:48.633Z,80.56
2023-02-02T18:07:18.202Z,80.96
2023-02-02T18:17:21.399Z,80.82
2023-02-02T18:27:26.393Z,81.90
2023-02-02T18:37:31.723Z,82.56
2023-02-02T18:47:36.102Z,82.56
2023-02-02T18:57:39.251Z,83.43
2023-02-02T19:07:56.813Z,83.57
2023-02-02T19:18:00.103Z,85.01
2023-02-02T19:28:15.254Z,85.01
2023-02-02T19:38:20.855Z,85.41
2023-02-02T19:48:27.354Z,85.84
2023-02-02T19:58:37.568Z,86.30
2023-02-02T20:08:44.474Z,86.45
2023-02-02T20:18:53.987Z,85.34
2023-02-02T20:29:00.274Z,86.20
2023-02-02T20:39:24.013Z,86.10
2023-02-02T20:49:29.260Z,86.48
2023-02-02T20:59:33.007Z,86.44
2023-02-02T21:09:37.636Z,86.69
2023-02-02T21:19:40.774Z,86.70
2023-02-02T21:29:45.293Z,86.21
2023-02-02T21:39:51.221Z,86.08
2023-02-02T21:49:57.961Z,87.20
2023-02-02T22:00:01.966Z,88.16
2023-02-02T22:10:30.220Z,90.20
2023-02-02T22:20:36.725Z,92.29
2023-02-02T22:30:42.482Z,94.03
2023-02-02T22:41:10.035Z,93.77
2023-02-02T22:51:14.942Z,94.03
2023-02-02T23:01:18.200Z,93.85
2023-02-02T23:11:22.710Z,92.57
2023-02-02T23:21:26.029Z,91.69
2023-02-02T23:31:30.645Z,90.88
2023-02-02T23:41:33.777Z,89.95
2023-02-02T23:51:38.890Z,89.55
